sensor_id;sensor_type;location;lat;lon;timestamp;temperature;humidity
58849;DHT22;44619;51.022;6.818;2023-02-15T00:00:02;4.90;67.50
58849;DHT22;44619;51.022;6.818;2023-02-15T00:02:28;4.90;67.70
58849;DHT22;44619;51.022;6.818;2023-02-15T00:04:53;4.90;67.60
58849;DHT22;44619;51.022;6.818;2023-02-15T00:07:24;4.90;67.30
58849;DHT22;44619;51.022;6.818;2023-02-15T00:09:49;4.80;67.40
58849;DHT22;44619;51.022;6.818;2023-02-15T00:12:15;4.70;67.60
58849;DHT22;44619;51.022;6.818;2023-02-15T00:14:41;4.70;67.40
58849;DHT22;44619;51.022;6.818;2023-02-15T00:17:07;4.80;67.20
58849;DHT22;44619;51.022;6.818;2023-02-15T00:19:38;4.70;67.40
58849;DHT22;44619;51.022;6.818;2023-02-15T00:22:05;4.70;67.40
58849;DHT22;44619;51.022;6.818;2023-02-15T00:24:31;4.70;67.50
58849;DHT22;44619;51.022;6.818;2023-02-15T00:26:57;4.70;67.30
58849;DHT22;44619;51.022;6.818;2023-02-15T00:29:23;4.60;67.50
58849;DHT22;44619;51.022;6.818;2023-02-15T00:31:48;4.50;67.50
58849;DHT22;44619;51.022;6.818;2023-02-15T00:34:15;4.60;67.20
58849;DHT22;44619;51.022;6.818;2023-02-15T00:36:42;4.50;67.50
58849;DHT22;44619;51.022;6.818;2023-02-15T00:39:07;4.50;67.30
58849;DHT22;44619;51.022;6.818;2023-02-15T00:41:33;4.50;67.40
58849;DHT22;44619;51.022;6.818;2023-02-15T00:43:59;4.40;67.50
58849;DHT22;44619;51.022;6.818;2023-02-15T00:46:24;4.30;67.70
58849;DHT22;44619;51.022;6.818;2023-02-15T00:48:50;4.40;67.30
58849;DHT22;44619;51.022;6.818;2023-02-15T00:51:16;4.30;67.30
58849;DHT22;44619;51.022;6.818;2023-02-15T00:53:42;4.40;67.00
58849;DHT22;44619;51.022;6.818;2023-02-15T00:56:09;4.30;67.40
58849;DHT22;44619;51.022;6.818;2023-02-15T00:58:34;4.30;67.10
58849;DHT22;44619;51.022;6.818;2023-02-15T01:01:04;4.20;67.70
58849;DHT22;44619;51.022;6.818;2023-02-15T01:03:30;4.20;67.40
58849;DHT22;44619;51.022;6.818;2023-02-15T01:05:56;4.30;67.10
58849;DHT22;44619;51.022;6.818;2023-02-15T01:08:21;4.30;66.80
58849;DHT22;44619;51.022;6.818;2023-02-15T01:10:47;4.20;67.20
58849;DHT22;44619;51.022;6.818;2023-02-15T01:13:14;4.00;67.70
58849;DHT22;44619;51.022;6.818;2023-02-15T01:15:40;4.10;67.40
58849;DHT22;44619;51.022;6.818;2023-02-15T01:18:05;4.10;67.40
58849;DHT22;44619;51.022;6.818;2023-02-15T01:20:33;4.00;67.60
58849;DHT22;44619;51.022;6.818;2023-02-15T01:22:59;4.00;67.60
58849;DHT22;44619;51.022;6.818;2023-02-15T01:25:25;4.00;67.60
58849;DHT22;44619;51.022;6.818;2023-02-15T01:27:50;3.90;67.60
58849;DHT22;44619;51.022;6.818;2023-02-15T01:30:16;4.10;67.10
58849;DHT22;44619;51.022;6.818;2023-02-15T01:32:42;4.00;67.10
58849;DHT22;44619;51.022;6.818;2023-02-15T01:35:08;3.90;67.30
58849;DHT22;44619;51.022;6.818;2023-02-15T01:37:38;3.90;67.40
58849;DHT22;44619;51.022;6.818;2023-02-15T01:40:05;3.80;67.70
58849;DHT22;44619;51.022;6.818;2023-02-15T01:42:31;3.90;67.60
58849;DHT22;44619;51.022;6.818;2023-02-15T01:45:02;3.90;67.40
58849;DHT22;44619;51.022;6.818;2023-02-15T01:47:36;3.70;67.70
58849;DHT22;44619;51.022;6.818;2023-02-15T01:50:20;3.70;67.90
58849;DHT22;44619;51.022;6.818;2023-02-15T01:52:55;3.80;67.60
58849;DHT22;44619;51.022;6.818;2023-02-15T01:55:22;3.70;67.80
58849;DHT22;44619;51.022;6.818;2023-02-15T01:57:50;3.60;67.80
58849;DHT22;44619;51.022;6.818;2023-02-15T02:00:16;3.70;67.70
58849;DHT22;44619;51.022;6.818;2023-02-15T02:02:43;3.70;67.30
58849;DHT22;44619;51.022;6.818;2023-02-15T02:05:10;3.70;67.70
58849;DHT22;44619;51.022;6.818;2023-02-15T02:07:39;3.70;67.40
58849;DHT22;44619;51.022;6.818;2023-02-15T02:10:06;3.70;67.40
58849;DHT22;44619;51.022;6.818;2023-02-15T02:12:37;3.70;67.40
58849;DHT22;44619;51.022;6.818;2023-02-15T02:15:04;3.60;67.40
58849;DHT22;44619;51.022;6.818;2023-02-15T02:22:32;3.40;68.00
58849;DHT22;44619;51.022;6.818;2023-02-15T02:28:11;3.50;67.30
58849;DHT22;44619;51.022;6.818;2023-02-15T02:41:55;3.30;68.20
58849;DHT22;44619;51.022;6.818;2023-02-15T02:44:34;3.30;68.10
58849;DHT22;44619;51.022;6.818;2023-02-15T02:49:33;3.30;67.60
58849;DHT22;44619;51.022;6.818;2023-02-15T02:52:07;3.40;67.60
58849;DHT22;44619;51.022;6.818;2023-02-15T02:54:33;3.40;67.40
58849;DHT22;44619;51.022;6.818;2023-02-15T02:57:00;3.30;67.80
58849;DHT22;44619;51.022;6.818;2023-02-15T02:59:28;3.30;67.80
58849;DHT22;44619;51.022;6.818;2023-02-15T03:01:59;3.30;67.80
58849;DHT22;44619;51.022;6.818;2023-02-15T03:04:29;3.30;67.50
58849;DHT22;44619;51.022;6.818;2023-02-15T03:06:59;3.20;67.80
58849;DHT22;44619;51.022;6.818;2023-02-15T03:09:42;3.10;68.20
58849;DHT22;44619;51.022;6.818;2023-02-15T03:12:10;3.20;68.00
58849;DHT22;44619;51.022;6.818;2023-02-15T03:14:36;3.10;68.00
58849;DHT22;44619;51.022;6.818;2023-02-15T03:17:02;3.20;67.70
58849;DHT22;44619;51.022;6.818;2023-02-15T03:19:33;3.20;67.50
58849;DHT22;44619;51.022;6.818;2023-02-15T03:22:04;3.10;67.60
58849;DHT22;44619;51.022;6.818;2023-02-15T03:26:59;3.10;67.80
58849;DHT22;44619;51.022;6.818;2023-02-15T03:29:28;3.10;67.50
58849;DHT22;44619;51.022;6.818;2023-02-15T03:31:58;3.10;67.50
58849;DHT22;44619;51.022;6.818;2023-02-15T03:34:24;3.00;67.70
58849;DHT22;44619;51.022;6.818;2023-02-15T03:37:37;3.00;67.90
58849;DHT22;44619;51.022;6.818;2023-02-15T03:39:42;3.00;67.90
58849;DHT22;44619;51.022;6.818;2023-02-15T03:42:13;2.90;67.90
58849;DHT22;44619;51.022;6.818;2023-02-15T03:44:46;2.90;68.20
58849;DHT22;44619;51.022;6.818;2023-02-15T03:47:13;3.00;67.70
58849;DHT22;44619;51.022;6.818;2023-02-15T03:49:42;3.00;67.60
58849;DHT22;44619;51.022;6.818;2023-02-15T03:52:08;3.00;67.60
58849;DHT22;44619;51.022;6.818;2023-02-15T03:54:35;2.90;67.70
58849;DHT22;44619;51.022;6.818;2023-02-15T03:59:56;2.80;67.90
58849;DHT22;44619;51.022;6.818;2023-02-15T04:05:18;2.80;67.90
58849;DHT22;44619;51.022;6.818;2023-02-15T04:07:44;2.70;68.10
58849;DHT22;44619;51.022;6.818;2023-02-15T04:10:09;2.70;68.00
58849;DHT22;44619;51.022;6.818;2023-02-15T04:12:54;2.60;68.30
58849;DHT22;44619;51.022;6.818;2023-02-15T04:15:19;2.60;68.60
58849;DHT22;44619;51.022;6.818;2023-02-15T04:18:03;2.60;68.30
58849;DHT22;44619;51.022;6.818;2023-02-15T04:20:29;2.50;68.60
58849;DHT22;44619;51.022;6.818;2023-02-15T04:23:19;2.60;68.50
58849;DHT22;44619;51.022;6.818;2023-02-15T04:26:04;2.50;68.40
58849;DHT22;44619;51.022;6.818;2023-02-15T04:28:30;2.40;68.70
58849;DHT22;44619;51.022;6.818;2023-02-15T04:30:55;2.30;68.90
58849;DHT22;44619;51.022;6.818;2023-02-15T04:33:21;2.40;69.10
58849;DHT22;44619;51.022;6.818;2023-02-15T04:35:46;2.30;69.00
58849;DHT22;44619;51.022;6.818;2023-02-15T04:38:12;2.30;69.30
58849;DHT22;44619;51.022;6.818;2023-02-15T04:40:37;2.30;69.00
58849;DHT22;44619;51.022;6.818;2023-02-15T04:43:03;2.30;69.10
58849;DHT22;44619;51.022;6.818;2023-02-15T04:45:28;2.30;69.00
58849;DHT22;44619;51.022;6.818;2023-02-15T04:47:57;2.30;68.80
58849;DHT22;44619;51.022;6.818;2023-02-15T04:50:23;2.20;69.10
58849;DHT22;44619;51.022;6.818;2023-02-15T04:52:48;2.20;69.00
58849;DHT22;44619;51.022;6.818;2023-02-15T04:55:14;2.30;68.80
58849;DHT22;44619;51.022;6.818;2023-02-15T04:57:40;2.20;68.60
58849;DHT22;44619;51.022;6.818;2023-02-15T05:00:05;2.20;68.80
58849;DHT22;44619;51.022;6.818;2023-02-15T05:02:31;2.20;68.80
58849;DHT22;44619;51.022;6.818;2023-02-15T05:04:57;2.20;69.00
58849;DHT22;44619;51.022;6.818;2023-02-15T05:07:22;2.10;68.90
58849;DHT22;44619;51.022;6.818;2023-02-15T05:09:48;2.00;69.40
58849;DHT22;44619;51.022;6.818;2023-02-15T05:12:14;2.00;69.50
58849;DHT22;44619;51.022;6.818;2023-02-15T05:14:42;2.00;69.10
58849;DHT22;44619;51.022;6.818;2023-02-15T05:17:08;2.00;69.20
58849;DHT22;44619;51.022;6.818;2023-02-15T05:19:33;2.10;68.90
58849;DHT22;44619;51.022;6.818;2023-02-15T05:22:02;2.00;69.00
58849;DHT22;44619;51.022;6.818;2023-02-15T05:24:27;2.00;69.10
58849;DHT22;44619;51.022;6.818;2023-02-15T05:27:12;2.00;69.20
58849;DHT22;44619;51.022;6.818;2023-02-15T05:29:56;1.90;69.80
58849;DHT22;44619;51.022;6.818;2023-02-15T05:32:22;2.00;69.70
58849;DHT22;44619;51.022;6.818;2023-02-15T05:34:47;1.90;69.70
58849;DHT22;44619;51.022;6.818;2023-02-15T05:37:13;1.90;70.10
58849;DHT22;44619;51.022;6.818;2023-02-15T05:39:39;1.90;70.70
58849;DHT22;44619;51.022;6.818;2023-02-15T05:42:07;1.90;70.50
58849;DHT22;44619;51.022;6.818;2023-02-15T05:44:33;2.00;70.20
58849;DHT22;44619;51.022;6.818;2023-02-15T05:46:58;2.00;70.20
58849;DHT22;44619;51.022;6.818;2023-02-15T05:49:24;2.00;70.80
58849;DHT22;44619;51.022;6.818;2023-02-15T05:51:49;2.00;70.70
58849;DHT22;44619;51.022;6.818;2023-02-15T05:54:15;2.00;70.60
58849;DHT22;44619;51.022;6.818;2023-02-15T05:56:40;2.00;70.70
58849;DHT22;44619;51.022;6.818;2023-02-15T05:59:06;2.00;71.00
58849;DHT22;44619;51.022;6.818;2023-02-15T06:01:35;2.00;71.20
58849;DHT22;44619;51.022;6.818;2023-02-15T06:04:01;1.80;71.80
58849;DHT22;44619;51.022;6.818;2023-02-15T06:06:27;1.90;72.00
58849;DHT22;44619;51.022;6.818;2023-02-15T06:08:53;1.90;73.20
58849;DHT22;44619;51.022;6.818;2023-02-15T06:11:18;1.80;71.90
58849;DHT22;44619;51.022;6.818;2023-02-15T06:13:44;1.80;72.20
58849;DHT22;44619;51.022;6.818;2023-02-15T06:16:10;1.80;71.20
58849;DHT22;44619;51.022;6.818;2023-02-15T06:18:35;1.90;71.10
58849;DHT22;44619;51.022;6.818;2023-02-15T06:21:01;1.80;71.10
58849;DHT22;44619;51.022;6.818;2023-02-15T06:23:27;1.80;71.40
58849;DHT22;44619;51.022;6.818;2023-02-15T06:25:52;2.00;71.10
58849;DHT22;44619;51.022;6.818;2023-02-15T06:28:18;1.80;71.20
58849;DHT22;44619;51.022;6.818;2023-02-15T06:30:44;1.70;71.50
58849;DHT22;44619;51.022;6.818;2023-02-15T06:33:09;1.70;72.00
58849;DHT22;44619;51.022;6.818;2023-02-15T06:38:37;1.80;72.90
58849;DHT22;44619;51.022;6.818;2023-02-15T06:41:03;1.70;73.40
58849;DHT22;44619;51.022;6.818;2023-02-15T06:43:29;1.70;72.60
58849;DHT22;44619;51.022;6.818;2023-02-15T06:45:54;1.70;74.20
58849;DHT22;44619;51.022;6.818;2023-02-15T06:48:20;1.70;75.60
58849;DHT22;44619;51.022;6.818;2023-02-15T06:50:46;1.70;75.20
58849;DHT22;44619;51.022;6.818;2023-02-15T06:53:11;1.80;74.70
58849;DHT22;44619;51.022;6.818;2023-02-15T06:55:37;1.80;74.70
58849;DHT22;44619;51.022;6.818;2023-02-15T06:58:02;1.70;74.80
58849;DHT22;44619;51.022;6.818;2023-02-15T07:00:28;1.80;74.10
58849;DHT22;44619;51.022;6.818;2023-02-15T07:02:54;1.90;73.20
58849;DHT22;44619;51.022;6.818;2023-02-15T07:05:21;1.80;73.80
58849;DHT22;44619;51.022;6.818;2023-02-15T13:42:58;15.90;55.30
58849;DHT22;44619;51.022;6.818;2023-02-15T13:47:52;16.80;56.90
58849;DHT22;44619;51.022;6.818;2023-02-15T13:55:34;18.00;57.40
58849;DHT22;44619;51.022;6.818;2023-02-15T14:08:13;19.30;56.80
58849;DHT22;44619;51.022;6.818;2023-02-15T14:10:44;19.50;56.70
58849;DHT22;44619;51.022;6.818;2023-02-15T14:26:22;20.50;56.50
58849;DHT22;44619;51.022;6.818;2023-02-15T14:31:50;20.60;56.60
58849;DHT22;44619;51.022;6.818;2023-02-15T14:34:41;20.70;56.60
58849;DHT22;44619;51.022;6.818;2023-02-15T14:37:08;20.70;56.60
58849;DHT22;44619;51.022;6.818;2023-02-15T14:45:18;20.80;56.40
58849;DHT22;44619;51.022;6.818;2023-02-15T14:47:51;20.90;56.40
58849;DHT22;44619;51.022;6.818;2023-02-15T14:55:39;21.00;56.20
58849;DHT22;44619;51.022;6.818;2023-02-15T14:58:09;21.10;56.10
58849;DHT22;44619;51.022;6.818;2023-02-15T15:00:36;21.10;56.20
58849;DHT22;44619;51.022;6.818;2023-02-15T15:03:08;21.00;56.20
58849;DHT22;44619;51.022;6.818;2023-02-15T15:05:35;20.90;56.30
58849;DHT22;44619;51.022;6.818;2023-02-15T15:13:59;20.80;56.30
58849;DHT22;44619;51.022;6.818;2023-02-15T15:16:29;20.80;56.30
58849;DHT22;44619;51.022;6.818;2023-02-15T15:18:55;20.80;56.00
58849;DHT22;44619;51.022;6.818;2023-02-15T15:24:06;20.80;56.00
58849;DHT22;44619;51.022;6.818;2023-02-15T15:26:31;20.70;55.80
58849;DHT22;44619;51.022;6.818;2023-02-15T15:29:06;20.60;55.80
58849;DHT22;44619;51.022;6.818;2023-02-15T15:31:42;20.50;55.70
58849;DHT22;44619;51.022;6.818;2023-02-15T15:44:25;20.10;56.20
58849;DHT22;44619;51.022;6.818;2023-02-15T15:49:38;19.90;56.20
58849;DHT22;44619;51.022;6.818;2023-02-15T15:52:14;19.80;56.40
58849;DHT22;44619;51.022;6.818;2023-02-15T15:54:42;19.60;56.40
58849;DHT22;44619;51.022;6.818;2023-02-15T15:59:52;19.50;56.50
58849;DHT22;44619;51.022;6.818;2023-02-15T16:02:19;19.30;56.10
58849;DHT22;44619;51.022;6.818;2023-02-15T16:04:45;19.30;55.80
58849;DHT22;44619;51.022;6.818;2023-02-15T16:09:41;19.10;56.10
58849;DHT22;44619;51.022;6.818;2023-02-15T16:12:16;18.90;56.10
58849;DHT22;44619;51.022;6.818;2023-02-15T16:14:42;18.90;56.30
58849;DHT22;44619;51.022;6.818;2023-02-15T16:17:17;18.70;56.40
58849;DHT22;44619;51.022;6.818;2023-02-15T16:19:44;18.60;56.30
58849;DHT22;44619;51.022;6.818;2023-02-15T16:22:14;18.50;56.10
58849;DHT22;44619;51.022;6.818;2023-02-15T16:29:35;18.40;55.30
58849;DHT22;44619;51.022;6.818;2023-02-15T16:34:31;18.20;55.00
58849;DHT22;44619;51.022;6.818;2023-02-15T16:39:42;17.90;54.80
58849;DHT22;44619;51.022;6.818;2023-02-15T16:42:08;17.70;54.70
58849;DHT22;44619;51.022;6.818;2023-02-15T16:44:34;17.50;54.80
58849;DHT22;44619;51.022;6.818;2023-02-15T16:47:00;17.40;54.80
58849;DHT22;44619;51.022;6.818;2023-02-15T16:49:32;17.20;55.00
58849;DHT22;44619;51.022;6.818;2023-02-15T16:51:59;17.10;55.10
58849;DHT22;44619;51.022;6.818;2023-02-15T16:54:26;16.90;55.10
58849;DHT22;44619;51.022;6.818;2023-02-15T16:56:53;16.70;55.40
58849;DHT22;44619;51.022;6.818;2023-02-15T17:01:56;16.50;55.50
58849;DHT22;44619;51.022;6.818;2023-02-15T17:07:03;16.10;55.90
58849;DHT22;44619;51.022;6.818;2023-02-15T17:09:28;15.90;56.00
58849;DHT22;44619;51.022;6.818;2023-02-15T17:11:54;15.80;56.10
58849;DHT22;44619;51.022;6.818;2023-02-15T17:14:21;15.80;55.80
58849;DHT22;44619;51.022;6.818;2023-02-15T17:16:59;15.60;56.20
58849;DHT22;44619;51.022;6.818;2023-02-15T17:19:27;15.50;56.00
58849;DHT22;44619;51.022;6.818;2023-02-15T17:21:57;15.40;56.10
58849;DHT22;44619;51.022;6.818;2023-02-15T17:26:59;15.10;56.50
58849;DHT22;44619;51.022;6.818;2023-02-15T17:29:38;15.10;56.40
58849;DHT22;44619;51.022;6.818;2023-02-15T17:32:06;15.00;56.40
58849;DHT22;44619;51.022;6.818;2023-02-15T17:37:10;14.80;56.40
58849;DHT22;44619;51.022;6.818;2023-02-15T17:39:36;14.70;56.50
58849;DHT22;44619;51.022;6.818;2023-02-15T17:42:02;14.50;56.60
58849;DHT22;44619;51.022;6.818;2023-02-15T17:44:27;14.30;57.00
58849;DHT22;44619;51.022;6.818;2023-02-15T17:46:53;14.30;57.00
58849;DHT22;44619;51.022;6.818;2023-02-15T17:49:22;14.10;57.10
58849;DHT22;44619;51.022;6.818;2023-02-15T17:51:48;14.20;56.80
58849;DHT22;44619;51.022;6.818;2023-02-15T17:54:14;14.00;57.20
58849;DHT22;44619;51.022;6.818;2023-02-15T17:56:58;13.90;57.40
58849;DHT22;44619;51.022;6.818;2023-02-15T17:59:29;13.90;57.10
58849;DHT22;44619;51.022;6.818;2023-02-15T18:01:55;13.80;57.10
58849;DHT22;44619;51.022;6.818;2023-02-15T18:04:40;13.80;57.30
58849;DHT22;44619;51.022;6.818;2023-02-15T18:07:24;13.70;57.20
58849;DHT22;44619;51.022;6.818;2023-02-15T18:10:15;13.80;56.80
58849;DHT22;44619;51.022;6.818;2023-02-15T18:12:59;13.60;56.80
58849;DHT22;44619;51.022;6.818;2023-02-15T18:15:25;13.50;56.80
58849;DHT22;44619;51.022;6.818;2023-02-15T18:17:50;13.50;56.70
58849;DHT22;44619;51.022;6.818;2023-02-15T18:22:42;13.40;56.70
58849;DHT22;44619;51.022;6.818;2023-02-15T18:25:14;13.30;56.70
58849;DHT22;44619;51.022;6.818;2023-02-15T18:27:40;13.30;56.90
58849;DHT22;44619;51.022;6.818;2023-02-15T18:30:06;13.30;56.80
58849;DHT22;44619;51.022;6.818;2023-02-15T18:32:33;13.10;56.80
58849;DHT22;44619;51.022;6.818;2023-02-15T18:35:00;13.00;57.10
58849;DHT22;44619;51.022;6.818;2023-02-15T18:37:27;12.90;57.20
58849;DHT22;44619;51.022;6.818;2023-02-15T18:39:53;12.90;57.20
58849;DHT22;44619;51.022;6.818;2023-02-15T18:44:45;12.80;57.20
58849;DHT22;44619;51.022;6.818;2023-02-15T18:47:10;12.70;57.10
58849;DHT22;44619;51.022;6.818;2023-02-15T18:49:36;12.60;57.20
58849;DHT22;44619;51.022;6.818;2023-02-15T18:52:02;12.50;57.50
58849;DHT22;44619;51.022;6.818;2023-02-15T18:54:27;12.40;57.60
58849;DHT22;44619;51.022;6.818;2023-02-15T18:56:56;12.30;57.60
58849;DHT22;44619;51.022;6.818;2023-02-15T18:59:24;12.20;57.60
58849;DHT22;44619;51.022;6.818;2023-02-15T19:01:50;12.20;57.60
58849;DHT22;44619;51.022;6.818;2023-02-15T19:04:15;12.10;57.80
58849;DHT22;44619;51.022;6.818;2023-02-15T19:06:48;12.00;57.60
58849;DHT22;44619;51.022;6.818;2023-02-15T19:09:20;12.00;57.70
58849;DHT22;44619;51.022;6.818;2023-02-15T19:11:50;11.90;57.80
58849;DHT22;44619;51.022;6.818;2023-02-15T19:14:27;11.80;57.70
58849;DHT22;44619;51.022;6.818;2023-02-15T19:16:53;11.70;57.90
58849;DHT22;44619;51.022;6.818;2023-02-15T19:19:19;11.70;57.90
58849;DHT22;44619;51.022;6.818;2023-02-15T19:21:44;11.70;57.90
58849;DHT22;44619;51.022;6.818;2023-02-15T19:24:13;11.50;57.90
58849;DHT22;44619;51.022;6.818;2023-02-15T19:26:40;11.40;58.00
58849;DHT22;44619;51.022;6.818;2023-02-15T19:29:06;11.30;58.30
58849;DHT22;44619;51.022;6.818;2023-02-15T19:31:33;11.20;58.30
58849;DHT22;44619;51.022;6.818;2023-02-15T19:33:59;11.30;58.10
58849;DHT22;44619;51.022;6.818;2023-02-15T19:36:24;11.30;58.00
58849;DHT22;44619;51.022;6.818;2023-02-15T19:38:51;11.10;58.30
58849;DHT22;44619;51.022;6.818;2023-02-15T19:41:31;11.00;58.50
58849;DHT22;44619;51.022;6.818;2023-02-15T19:43:58;10.90;58.60
58849;DHT22;44619;51.022;6.818;2023-02-15T19:46:25;10.80;58.50
58849;DHT22;44619;51.022;6.818;2023-02-15T19:48:52;10.80;58.50
58849;DHT22;44619;51.022;6.818;2023-02-15T19:51:20;10.80;58.40
58849;DHT22;44619;51.022;6.818;2023-02-15T19:53:47;10.70;58.40
58849;DHT22;44619;51.022;6.818;2023-02-15T19:56:16;10.70;58.40
58849;DHT22;44619;51.022;6.818;2023-02-15T19:58:42;10.70;58.20
58849;DHT22;44619;51.022;6.818;2023-02-15T20:01:10;10.50;58.50
58849;DHT22;44619;51.022;6.818;2023-02-15T20:03:36;10.50;58.50
58849;DHT22;44619;51.022;6.818;2023-02-15T20:06:02;10.40;58.60
58849;DHT22;44619;51.022;6.818;2023-02-15T20:08:27;10.40;58.50
58849;DHT22;44619;51.022;6.818;2023-02-15T20:10:53;10.40;58.50
58849;DHT22;44619;51.022;6.818;2023-02-15T20:13:19;10.30;58.70
58849;DHT22;44619;51.022;6.818;2023-02-15T20:15:45;10.30;58.50
58849;DHT22;44619;51.022;6.818;2023-02-15T20:18:13;10.20;58.70
58849;DHT22;44619;51.022;6.818;2023-02-15T20:20:40;10.10;58.70
58849;DHT22;44619;51.022;6.818;2023-02-15T20:26:00;10.00;58.70
58849;DHT22;44619;51.022;6.818;2023-02-15T20:28:27;9.90;58.70
58849;DHT22;44619;51.022;6.818;2023-02-15T20:30:53;9.90;58.60
58849;DHT22;44619;51.022;6.818;2023-02-15T20:33:19;9.80;58.80
58849;DHT22;44619;51.022;6.818;2023-02-15T20:35:47;9.80;58.90
58849;DHT22;44619;51.022;6.818;2023-02-15T20:38:26;9.70;58.80
58849;DHT22;44619;51.022;6.818;2023-02-15T20:40:52;9.60;58.80
58849;DHT22;44619;51.022;6.818;2023-02-15T20:43:37;9.50;58.90
58849;DHT22;44619;51.022;6.818;2023-02-15T20:46:06;9.50;69.50
58849;DHT22;44619;51.022;6.818;2023-02-15T20:48:32;9.50;70.00
58849;DHT22;44619;51.022;6.818;2023-02-15T20:50:57;9.40;70.20
58849;DHT22;44619;51.022;6.818;2023-02-15T20:53:23;9.50;71.50
58849;DHT22;44619;51.022;6.818;2023-02-15T20:55:49;9.40;72.00
58849;DHT22;44619;51.022;6.818;2023-02-15T20:58:19;9.30;79.80
58849;DHT22;44619;51.022;6.818;2023-02-15T21:00:45;9.30;81.10
58849;DHT22;44619;51.022;6.818;2023-02-15T21:03:11;9.30;83.90
58849;DHT22;44619;51.022;6.818;2023-02-15T21:08:13;9.00;58.70
58849;DHT22;44619;51.022;6.818;2023-02-15T21:10:38;9.00;59.10
58849;DHT22;44619;51.022;6.818;2023-02-15T21:13:08;9.00;59.10
58849;DHT22;44619;51.022;6.818;2023-02-15T21:15:40;9.00;59.10
58849;DHT22;44619;51.022;6.818;2023-02-15T21:18:19;8.90;59.10
58849;DHT22;44619;51.022;6.818;2023-02-15T21:20:47;8.90;58.90
58849;DHT22;44619;51.022;6.818;2023-02-15T21:23:46;8.80;59.00
58849;DHT22;44619;51.022;6.818;2023-02-15T21:26:15;8.70;59.20
58849;DHT22;44619;51.022;6.818;2023-02-15T21:28:41;8.60;59.20
58849;DHT22;44619;51.022;6.818;2023-02-15T21:31:16;8.60;59.30
58849;DHT22;44619;51.022;6.818;2023-02-15T21:33:42;8.60;59.10
58849;DHT22;44619;51.022;6.818;2023-02-15T21:36:12;8.60;59.10
58849;DHT22;44619;51.022;6.818;2023-02-15T21:38:41;8.50;59.10
58849;DHT22;44619;51.022;6.818;2023-02-15T21:41:14;8.40;59.10
58849;DHT22;44619;51.022;6.818;2023-02-15T21:43:59;8.40;59.10
58849;DHT22;44619;51.022;6.818;2023-02-15T21:46:43;8.30;59.20
58849;DHT22;44619;51.022;6.818;2023-02-15T21:49:27;8.10;59.50
58849;DHT22;44619;51.022;6.818;2023-02-15T21:51:53;8.10;59.60
58849;DHT22;44619;51.022;6.818;2023-02-15T21:54:37;8.00;59.60
58849;DHT22;44619;51.022;6.818;2023-02-15T21:57:03;8.00;59.60
58849;DHT22;44619;51.022;6.818;2023-02-15T21:59:34;7.90;59.70
58849;DHT22;44619;51.022;6.818;2023-02-15T22:02:00;7.90;59.60
58849;DHT22;44619;51.022;6.818;2023-02-15T22:04:26;7.90;59.40
58849;DHT22;44619;51.022;6.818;2023-02-15T22:06:52;7.80;59.60
58849;DHT22;44619;51.022;6.818;2023-02-15T22:09:19;7.80;59.70
58849;DHT22;44619;51.022;6.818;2023-02-15T22:11:45;7.80;59.40
58849;DHT22;44619;51.022;6.818;2023-02-15T22:16:45;7.70;59.50
58849;DHT22;44619;51.022;6.818;2023-02-15T22:19:11;7.60;59.60
58849;DHT22;44619;51.022;6.818;2023-02-15T22:21:36;7.50;59.90
58849;DHT22;44619;51.022;6.818;2023-02-15T22:24:02;7.50;59.80
58849;DHT22;44619;51.022;6.818;2023-02-15T22:26:28;7.50;59.90
58849;DHT22;44619;51.022;6.818;2023-02-15T22:28:55;7.40;59.80
58849;DHT22;44619;51.022;6.818;2023-02-15T22:31:21;7.30;60.00
58849;DHT22;44619;51.022;6.818;2023-02-15T22:33:47;7.30;59.80
58849;DHT22;44619;51.022;6.818;2023-02-15T22:36:25;7.30;59.90
58849;DHT22;44619;51.022;6.818;2023-02-15T22:38:51;7.30;59.70
58849;DHT22;44619;51.022;6.818;2023-02-15T22:41:17;7.20;60.00
58849;DHT22;44619;51.022;6.818;2023-02-15T22:43:43;7.20;60.10
58849;DHT22;44619;51.022;6.818;2023-02-15T22:46:14;7.10;60.10
58849;DHT22;44619;51.022;6.818;2023-02-15T22:48:41;7.10;60.10
58849;DHT22;44619;51.022;6.818;2023-02-15T22:51:08;7.00;60.10
58849;DHT22;44619;51.022;6.818;2023-02-15T22:53:34;7.00;60.10
58849;DHT22;44619;51.022;6.818;2023-02-15T22:56:00;6.90;60.30
58849;DHT22;44619;51.022;6.818;2023-02-15T22:58:26;6.90;60.10
58849;DHT22;44619;51.022;6.818;2023-02-15T23:00:52;6.80;60.40
58849;DHT22;44619;51.022;6.818;2023-02-15T23:03:22;6.80;61.30
58849;DHT22;44619;51.022;6.818;2023-02-15T23:05:48;6.80;60.30
58849;DHT22;44619;51.022;6.818;2023-02-15T23:08:14;6.70;60.60
58849;DHT22;44619;51.022;6.818;2023-02-15T23:10:39;6.70;60.60
58849;DHT22;44619;51.022;6.818;2023-02-15T23:13:12;6.70;60.30
58849;DHT22;44619;51.022;6.818;2023-02-15T23:15:49;6.70;60.20
58849;DHT22;44619;51.022;6.818;2023-02-15T23:18:22;6.60;60.30
58849;DHT22;44619;51.022;6.818;2023-02-15T23:20:49;6.70;60.00
58849;DHT22;44619;51.022;6.818;2023-02-15T23:23:16;6.40;60.40
58849;DHT22;44619;51.022;6.818;2023-02-15T23:25:42;6.40;60.50
58849;DHT22;44619;51.022;6.818;2023-02-15T23:28:20;6.50;60.10
58849;DHT22;44619;51.022;6.818;2023-02-15T23:30:46;6.50;60.20
58849;DHT22;44619;51.022;6.818;2023-02-15T23:33:12;6.40;60.40
58849;DHT22;44619;51.022;6.818;2023-02-15T23:35:38;6.40;60.40
58849;DHT22;44619;51.022;6.818;2023-02-15T23:38:08;6.30;60.20
58849;DHT22;44619;51.022;6.818;2023-02-15T23:40:36;6.20;60.40
58849;DHT22;44619;51.022;6.818;2023-02-15T23:43:37;6.20;60.70
58849;DHT22;44619;51.022;6.818;2023-02-15T23:46:03;6.10;60.70
58849;DHT22;44619;51.022;6.818;2023-02-15T23:48:33;6.10;60.80
58849;DHT22;44619;51.022;6.818;2023-02-15T23:50:59;6.10;60.60
58849;DHT22;44619;51.022;6.818;2023-02-15T23:53:25;6.10;60.30
58849;DHT22;44619;51.022;6.818;2023-02-15T23:55:50;6.10;60.30
58849;DHT22;44619;51.022;6.818;2023-02-15T23:58:19;6.00;60.40
